Time;durP1;ratioP1;P1;durP2;ratioP2;P2;SDS_P1;SDS_P2;PMS_P1;PMS_P2;Temp;Humidity;BMP_temperature;BMP_pressure;BME280_temperature;BME280_humidity;BME280_pressure;Samples;Min_cycle;Max_cycle;Signal;HPM_P1;HPM_P2
2021/05/12 00:01:18;;;;;;;15.95;14.30;;;14.60;91.60;;;;;;5093332;28;20380;-89
2021/05/12 00:03:44;;;;;;;15.55;13.85;;;14.60;91.70;;;;;;5089372;28;20102;-88
2021/05/12 00:06:10;;;;;;;17.05;14.65;;;14.60;91.60;;;;;;5098992;28;20059;-89
2021/05/12 00:08:36;;;;;;;16.45;14.48;;;14.60;91.60;;;;;;5072067;28;20123;-89
2021/05/12 00:11:02;;;;;;;16.00;14.23;;;14.60;91.50;;;;;;5112054;28;20030;-88
2021/05/12 00:13:27;;;;;;;19.30;14.82;;;14.50;91.50;;;;;;5075096;28;20393;-89
2021/05/12 00:15:54;;;;;;;16.42;14.63;;;14.50;91.60;;;;;;5098030;28;20081;-88
2021/05/12 00:18:22;;;;;;;18.23;14.65;;;14.50;91.80;;;;;;5078490;28;20038;-89
2021/05/12 00:20:48;;;;;;;16.70;14.90;;;14.50;91.60;;;;;;5083001;28;20480;-88
2021/05/12 00:23:18;;;;;;;17.00;15.07;;;14.40;91.70;;;;;;5069225;28;20032;-89
2021/05/12 00:25:44;;;;;;;19.55;15.18;;;14.40;91.70;;;;;;5099329;28;20532;-89
2021/05/12 00:28:09;;;;;;;16.38;13.82;;;14.40;91.60;;;;;;5079537;28;20059;-89
2021/05/12 00:30:35;;;;;;;17.10;14.82;;;14.30;91.60;;;;;;5062797;28;20023;-89
2021/05/12 00:33:02;;;;;;;16.80;14.52;;;14.30;91.70;;;;;;5093891;28;20031;-89
2021/05/12 00:35:27;;;;;;;17.30;14.35;;;14.30;91.70;;;;;;5063063;28;20469;-89
2021/05/12 00:37:53;;;;;;;16.38;14.63;;;14.30;91.80;;;;;;5079749;28;20047;-89
2021/05/12 00:40:19;;;;;;;16.35;14.65;;;14.30;91.80;;;;;;5064083;28;20034;-88
2021/05/12 00:42:45;;;;;;;15.90;14.30;;;14.20;91.70;;;;;;5099574;28;20024;-88
2021/05/12 00:45:13;;;;;;;16.75;14.82;;;14.20;91.80;;;;;;5097554;28;20019;-88
2021/05/12 00:47:39;;;;;;;16.60;14.88;;;14.20;91.80;;;;;;5051202;28;20024;-89
2021/05/12 00:50:07;;;;;;;18.17;14.80;;;14.20;91.70;;;;;;5075851;28;20047;-89
2021/05/12 00:52:33;;;;;;;16.73;14.40;;;14.10;91.70;;;;;;5085304;28;20107;-89
2021/05/12 00:54:59;;;;;;;16.27;13.90;;;14.10;91.70;;;;;;5082602;28;20048;-89
2021/05/12 00:57:25;;;;;;;15.88;14.18;;;14.10;91.70;;;;;;5067740;28;20055;-88
2021/05/12 00:59:53;;;;;;;16.38;13.60;;;14.00;91.60;;;;;;5052341;28;20032;-89
2021/05/12 01:02:19;;;;;;;16.10;13.13;;;14.00;91.70;;;;;;5117181;28;20023;-88
2021/05/12 01:04:45;;;;;;;16.67;12.95;;;14.00;91.60;;;;;;5079854;28;20048;-89
2021/05/12 01:07:11;;;;;;;19.10;13.23;;;14.00;91.50;;;;;;5078961;28;20461;-89
2021/05/12 01:09:37;;;;;;;16.55;12.77;;;14.00;91.40;;;;;;5093424;28;20019;-89
2021/05/12 01:12:04;;;;;;;17.23;12.77;;;13.90;91.40;;;;;;5073072;28;20458;-88
2021/05/12 01:14:30;;;;;;;16.05;12.40;;;13.90;91.50;;;;;;5094041;28;20160;-88
2021/05/12 01:16:56;;;;;;;14.75;11.88;;;13.80;91.80;;;;;;5078328;28;20039;-88
2021/05/12 01:19:22;;;;;;;13.68;11.00;;;13.80;91.50;;;;;;5081447;28;20020;-88
2021/05/12 01:21:48;;;;;;;14.50;11.25;;;13.80;91.40;;;;;;5098474;28;20031;-89
2021/05/12 01:24:14;;;;;;;14.63;10.93;;;13.70;91.20;;;;;;5081487;28;20038;-88
2021/05/12 01:26:40;;;;;;;14.20;10.63;;;13.70;91.20;;;;;;5097187;28;20023;-89
2021/05/12 01:29:06;;;;;;;15.02;10.73;;;13.60;91.00;;;;;;5089856;28;20016;-88
2021/05/12 01:31:33;;;;;;;13.13;10.88;;;13.60;91.00;;;;;;5083051;28;20016;-88
2021/05/12 01:34:00;;;;;;;15.80;11.32;;;13.50;90.90;;;;;;5098622;28;20020;-88
2021/05/12 01:36:27;;;;;;;16.92;11.15;;;13.50;91.00;;;;;;5081561;28;20034;-89
2021/05/12 01:38:53;;;;;;;15.35;11.55;;;13.40;91.00;;;;;;5113552;28;20024;-88
2021/05/12 01:41:22;;;;;;;14.27;10.60;;;13.40;91.10;;;;;;5087502;28;20072;-88
2021/05/12 01:43:48;;;;;;;13.10;11.60;;;13.40;91.20;;;;;;5116276;28;20031;-88
2021/05/12 01:46:14;;;;;;;16.90;11.38;;;13.30;91.10;;;;;;5108138;28;20032;-88
2021/05/12 01:48:40;;;;;;;15.15;11.88;;;13.30;91.00;;;;;;5083206;28;20023;-88
2021/05/12 01:51:06;;;;;;;16.60;12.65;;;13.20;91.10;;;;;;5087498;28;20016;-88
2021/05/12 01:53:32;;;;;;;17.15;12.25;;;13.20;91.10;;;;;;5078084;28;20036;-89
2021/05/12 01:55:58;;;;;;;17.88;12.50;;;13.10;91.20;;;;;;5050487;28;20431;-88
2021/05/12 01:58:24;;;;;;;16.23;12.68;;;13.10;91.30;;;;;;5062249;28;20077;-88
2021/05/12 02:00:53;;;;;;;15.27;11.35;;;13.10;91.20;;;;;;5101646;28;20143;-88
2021/05/12 02:03:19;;;;;;;16.27;12.50;;;13.10;91.30;;;;;;5090318;28;20458;-88
2021/05/12 02:05:46;;;;;;;15.82;11.52;;;13.00;91.30;;;;;;5077756;28;20197;-88
2021/05/12 02:08:17;;;;;;;15.52;11.45;;;13.00;91.30;;;;;;5083573;28;20016;-88
2021/05/12 02:10:44;;;;;;;15.87;10.67;;;13.00;91.30;;;;;;5086782;28;20028;-88
2021/05/12 02:13:10;;;;;;;14.88;11.02;;;13.00;91.30;;;;;;5082204;28;20023;-88
2021/05/12 02:15:36;;;;;;;15.07;10.90;;;13.00;91.30;;;;;;5113436;28;20047;-88
2021/05/12 02:18:02;;;;;;;17.17;11.82;;;12.90;91.10;;;;;;5072746;28;20050;-88
2021/05/12 02:20:30;;;;;;;15.88;11.50;;;12.90;91.10;;;;;;5066889;28;20059;-88
2021/05/12 02:22:57;;;;;;;15.88;11.07;;;12.90;91.40;;;;;;5100034;28;20045;-89
2021/05/12 02:25:24;;;;;;;15.35;11.55;;;12.90;91.20;;;;;;5094092;28;20393;-88
2021/05/12 02:27:50;;;;;;;14.80;11.70;;;12.80;91.30;;;;;;5091778;28;20026;-88
2021/05/12 02:30:16;;;;;;;18.02;12.18;;;12.90;91.40;;;;;;5077349;28;20024;-88
2021/05/12 02:32:42;;;;;;;18.00;12.18;;;12.80;91.30;;;;;;5074447;28;20031;-88
2021/05/12 02:35:10;;;;;;;17.40;11.50;;;12.80;91.30;;;;;;5073923;28;20092;-88
2021/05/12 02:37:37;;;;;;;15.73;12.18;;;12.80;91.30;;;;;;5088821;28;20051;-88
2021/05/12 02:40:05;;;;;;;15.48;12.27;;;12.70;91.40;;;;;;5074424;28;20024;-88
2021/05/12 02:42:31;;;;;;;15.65;11.25;;;12.70;91.40;;;;;;5101674;28;20020;-88
2021/05/12 02:44:57;;;;;;;16.17;11.70;;;12.70;91.40;;;;;;5083534;28;20031;-88
2021/05/12 02:47:22;;;;;;;16.25;13.05;;;12.70;91.30;;;;;;5096414;28;20456;-88
2021/05/12 02:49:48;;;;;;;17.23;12.55;;;12.70;91.30;;;;;;5063202;28;20465;-88
2021/05/12 02:52:14;;;;;;;17.25;13.30;;;12.70;91.40;;;;;;5097103;28;20035;-89
2021/05/12 02:54:40;;;;;;;18.65;12.60;;;12.60;91.50;;;;;;5096924;28;20028;-89
2021/05/12 02:57:06;;;;;;;18.25;13.82;;;12.60;91.50;;;;;;5060054;28;20081;-89
2021/05/12 02:59:31;;;;;;;19.13;14.52;;;12.60;91.60;;;;;;5089677;28;20035;-88
2021/05/12 03:01:57;;;;;;;18.48;12.77;;;12.60;91.90;;;;;;5061587;28;20028;-88
2021/05/12 03:04:23;;;;;;;18.15;13.02;;;12.60;91.60;;;;;;5111747;22;20564;-86
2021/05/12 03:06:49;;;;;;;19.33;13.93;;;12.60;91.60;;;;;;5078019;28;20023;-87
2021/05/12 03:09:15;;;;;;;19.38;13.80;;;12.60;91.60;;;;;;5078953;28;20023;-87
2021/05/12 03:11:41;;;;;;;19.45;14.32;;;12.60;91.70;;;;;;5114228;28;20057;-85
2021/05/12 03:14:09;;;;;;;19.13;14.60;;;12.60;91.90;;;;;;5113128;28;20435;-86
2021/05/12 03:16:36;;;;;;;19.52;14.50;;;12.60;92.00;;;;;;5084076;28;20028;-87
2021/05/12 03:19:02;;;;;;;20.27;14.85;;;12.60;92.10;;;;;;5078051;28;20025;-89
2021/05/12 03:21:29;;;;;;;19.02;14.52;;;12.70;92.10;;;;;;5079759;28;20044;-88
2021/05/12 03:23:54;;;;;;;21.15;15.20;;;12.70;92.00;;;;;;5082134;28;20081;-87
2021/05/12 03:26:21;;;;;;;20.42;14.90;;;12.70;92.00;;;;;;5073423;28;20023;-86
2021/05/12 03:28:46;;;;;;;21.27;15.98;;;12.70;92.10;;;;;;5087944;28;20466;-86
2021/05/12 03:31:13;;;;;;;20.35;15.18;;;12.70;92.10;;;;;;5068254;28;20031;-87
2021/05/12 03:33:42;;;;;;;19.02;14.80;;;12.70;92.00;;;;;;5094487;28;20481;-86
2021/05/12 03:36:09;;;;;;;21.85;15.82;;;12.70;92.00;;;;;;5096721;28;20088;-86
2021/05/12 03:38:35;;;;;;;20.83;15.43;;;12.70;91.90;;;;;;5081251;28;20062;-86
2021/05/12 03:41:01;;;;;;;20.35;14.88;;;12.60;92.10;;;;;;5086852;28;20433;-86
2021/05/12 03:43:27;;;;;;;19.92;15.07;;;12.60;91.70;;;;;;5089856;28;20063;-86
2021/05/12 03:45:53;;;;;;;20.30;15.15;;;12.60;91.80;;;;;;5080899;28;20027;-86
2021/05/12 03:48:18;;;;;;;19.17;14.98;;;12.60;92.00;;;;;;5080474;28;20382;-86
2021/05/12 03:50:44;;;;;;;18.52;14.13;;;12.50;92.00;;;;;;5073020;28;20052;-86
2021/05/12 03:53:10;;;;;;;16.48;13.55;;;12.50;92.00;;;;;;5067062;28;20039;-86
2021/05/12 03:55:37;;;;;;;22.70;16.13;;;12.50;91.80;;;;;;5074711;28;20077;-86
2021/05/12 03:58:03;;;;;;;21.83;15.15;;;12.50;91.90;;;;;;5082772;28;20490;-86
2021/05/12 04:00:29;;;;;;;18.20;13.82;;;12.40;91.80;;;;;;5080799;28;20054;-86
2021/05/12 04:02:55;;;;;;;20.63;14.98;;;12.40;91.90;;;;;;5061403;28;20115;-84
2021/05/12 04:05:21;;;;;;;18.48;13.73;;;12.30;91.90;;;;;;5077619;28;20047;-85
2021/05/12 04:07:48;;;;;;;17.95;13.77;;;12.30;91.80;;;;;;5074485;28;20454;-86
2021/05/12 04:10:14;;;;;;;17.33;13.90;;;12.30;91.90;;;;;;5068523;28;20104;-86
2021/05/12 04:12:39;;;;;;;18.30;13.05;;;12.20;92.10;;;;;;5080116;28;20580;-86
2021/05/12 04:15:07;;;;;;;21.15;14.00;;;12.20;92.10;;;;;;5085607;28;20047;-86
2021/05/12 04:17:33;;;;;;;20.92;12.70;;;12.20;92.10;;;;;;5071598;28;20501;-86
2021/05/12 04:19:59;;;;;;;18.92;13.48;;;12.20;92.30;;;;;;5099878;28;20031;-86
2021/05/12 04:22:24;;;;;;;18.88;12.57;;;12.20;92.30;;;;;;5094517;28;20072;-86
2021/05/12 04:24:51;;;;;;;17.95;12.27;;;12.20;92.30;;;;;;5094843;28;20024;-86
2021/05/12 04:27:18;;;;;;;19.33;13.32;;;12.20;92.40;;;;;;5098284;28;20365;-86
2021/05/12 04:29:45;;;;;;;19.13;12.35;;;12.20;92.30;;;;;;5061061;28;20099;-86
2021/05/12 04:32:10;;;;;;;18.20;12.57;;;12.20;92.50;;;;;;5071266;28;20051;-86
2021/05/12 04:34:36;;;;;;;17.55;11.80;;;12.20;92.30;;;;;;5067233;28;20028;-87
2021/05/12 04:37:02;;;;;;;18.77;13.00;;;12.20;92.40;;;;;;5079803;28;20484;-86
2021/05/12 04:39:28;;;;;;;16.42;12.05;;;12.20;92.50;;;;;;5087895;28;20035;-86
2021/05/12 04:41:54;;;;;;;17.88;12.50;;;12.30;92.50;;;;;;5081233;28;20024;-86
2021/05/12 04:44:20;;;;;;;18.73;12.43;;;12.30;92.50;;;;;;5064779;28;20023;-87
2021/05/12 04:46:45;;;;;;;16.00;12.02;;;12.30;92.60;;;;;;5088267;28;20020;-86
2021/05/12 04:49:13;;;;;;;16.55;11.77;;;12.20;92.50;;;;;;5091960;28;20051;-86
2021/05/12 04:51:39;;;;;;;17.77;12.68;;;12.20;92.50;;;;;;5089620;28;20393;-87
2021/05/12 04:54:05;;;;;;;18.15;12.18;;;12.20;92.70;;;;;;5081475;28;20015;-87
2021/05/12 04:56:34;;;;;;;16.50;12.27;;;12.30;92.70;;;;;;5097819;28;20441;-86
2021/05/12 04:59:01;;;;;;;17.80;12.07;;;12.20;92.70;;;;;;5083775;28;20020;-86
2021/05/12 05:01:27;;;;;;;20.02;13.35;;;12.30;92.70;;;;;;5077513;28;20107;-86
2021/05/12 05:03:53;;;;;;;16.58;12.20;;;12.30;92.90;;;;;;5075066;28;20514;-86
2021/05/12 05:06:37;;;;;;;16.83;11.70;;;12.30;92.90;;;;;;5097245;28;20042;-87
2021/05/12 05:09:06;;;;;;;16.25;11.77;;;12.30;92.90;;;;;;5072484;28;20031;-86
2021/05/12 05:11:32;;;;;;;17.60;12.07;;;12.30;93.00;;;;;;5069698;28;20422;-86
2021/05/12 05:13:58;;;;;;;16.95;12.48;;;12.30;92.90;;;;;;5077916;28;20028;-86
2021/05/12 05:16:25;;;;;;;13.85;11.38;;;12.40;93.00;;;;;;5107009;28;20028;-86
2021/05/12 05:18:51;;;;;;;19.13;11.80;;;12.40;93.00;;;;;;5112989;28;20027;-86
2021/05/12 05:21:17;;;;;;;17.60;11.32;;;12.40;92.80;;;;;;5085095;28;20027;-86
2021/05/12 05:23:43;;;;;;;13.65;10.52;;;12.40;92.70;;;;;;5065845;28;20492;-86
2021/05/12 05:26:08;;;;;;;15.48;11.00;;;12.40;92.60;;;;;;5059758;28;20031;-86
2021/05/12 05:28:34;;;;;;;19.02;12.93;;;12.40;92.60;;;;;;5068881;28;20093;-86
2021/05/12 05:31:00;;;;;;;15.88;11.48;;;12.40;92.50;;;;;;5066095;28;20024;-86
2021/05/12 05:33:26;;;;;;;21.40;13.15;;;12.30;92.60;;;;;;5086284;28;20024;-86
2021/05/12 05:35:52;;;;;;;19.98;13.55;;;12.40;92.60;;;;;;5079837;28;20028;-86
2021/05/12 05:38:19;;;;;;;22.02;13.02;;;12.40;92.60;;;;;;5082670;28;20020;-87
2021/05/12 05:40:44;;;;;;;17.63;13.13;;;12.40;92.90;;;;;;5092683;28;20405;-86
2021/05/12 05:43:10;;;;;;;19.85;13.27;;;12.40;92.60;;;;;;5090002;28;20046;-85
2021/05/12 05:45:36;;;;;;;16.27;12.57;;;12.40;92.60;;;;;;5065500;28;20031;-86
2021/05/12 05:48:02;;;;;;;16.00;12.07;;;12.40;92.60;;;;;;5072209;28;20024;-86
2021/05/12 05:50:27;;;;;;;20.60;15.50;;;12.40;92.70;;;;;;5079398;28;20020;-86
2021/05/12 05:52:56;;;;;;;18.58;13.77;;;12.50;92.70;;;;;;5058504;28;20077;-87
2021/05/12 05:55:23;;;;;;;21.13;14.80;;;12.50;92.60;;;;;;5094255;28;20028;-86
2021/05/12 05:57:49;;;;;;;18.77;12.98;;;12.50;92.70;;;;;;5086802;28;20468;-86
2021/05/12 06:00:16;;;;;;;17.33;13.18;;;12.60;92.70;;;;;;5076591;28;20019;-86
2021/05/12 06:02:42;;;;;;;21.75;14.85;;;12.60;92.70;;;;;;5068136;28;20053;-87
2021/05/12 06:05:08;;;;;;;19.80;14.30;;;12.70;92.70;;;;;;5087476;28;20566;-86
2021/05/12 06:07:34;;;;;;;19.02;14.80;;;12.70;92.60;;;;;;5059876;28;20031;-86
2021/05/12 06:10:00;;;;;;;20.67;15.20;;;12.80;92.60;;;;;;5088641;28;20035;-86
2021/05/12 06:12:25;;;;;;;19.52;13.50;;;12.80;92.70;;;;;;5073488;28;20024;-87
2021/05/12 06:14:51;;;;;;;16.15;13.40;;;12.80;92.60;;;;;;5068637;28;20461;-86
2021/05/12 06:17:17;;;;;;;18.33;13.38;;;12.90;92.60;;;;;;5087468;28;20024;-86
2021/05/12 06:19:42;;;;;;;18.83;14.18;;;12.90;92.60;;;;;;5083895;28;20024;-86
2021/05/12 06:22:08;;;;;;;18.80;14.02;;;13.00;92.70;;;;;;5060455;28;20545;-86
2021/05/12 06:24:34;;;;;;;20.75;14.82;;;13.00;92.70;;;;;;5059016;28;20024;-86
2021/05/12 06:27:01;;;;;;;18.45;12.88;;;13.10;92.60;;;;;;5077728;28;20024;-86
2021/05/12 06:29:27;;;;;;;18.77;13.32;;;13.10;92.60;;;;;;5056845;28;20049;-86
2021/05/12 06:31:56;;;;;;;18.27;14.00;;;13.20;92.60;;;;;;5073026;28;20047;-86
2021/05/12 06:34:21;;;;;;;17.92;12.63;;;13.30;92.60;;;;;;5072462;28;20028;-86
2021/05/12 06:36:47;;;;;;;16.73;11.85;;;13.40;92.60;;;;;;5073718;28;20489;-86
2021/05/12 06:39:13;;;;;;;14.98;11.35;;;13.40;92.60;;;;;;5068875;28;20030;-86
2021/05/12 06:41:38;;;;;;;18.98;12.10;;;13.50;92.60;;;;;;5072322;28;20031;-86
2021/05/12 06:44:05;;;;;;;18.30;11.57;;;13.50;92.70;;;;;;5074979;28;20039;-86
2021/05/12 06:46:31;;;;;;;17.20;11.90;;;13.60;92.30;;;;;;5089599;28;20019;-87
2021/05/12 06:48:57;;;;;;;15.38;10.20;;;13.70;92.20;;;;;;5057506;28;20024;-87
2021/05/12 06:51:23;;;;;;;17.08;10.30;;;13.70;92.30;;;;;;5058229;28;20032;-85
2021/05/12 06:53:48;;;;;;;20.27;10.43;;;13.80;92.10;;;;;;5057941;28;20488;-85
2021/05/12 06:56:14;;;;;;;15.25;9.65;;;13.80;92.00;;;;;;5105529;28;20031;-85
2021/05/12 06:58:43;;;;;;;15.57;9.90;;;13.90;91.90;;;;;;5087315;28;20422;-86
2021/05/12 07:01:09;;;;;;;14.23;8.70;;;14.00;91.70;;;;;;5070065;28;20066;-85
2021/05/12 07:03:35;;;;;;;12.82;8.43;;;14.00;91.60;;;;;;5075878;28;20095;-85
2021/05/12 07:06:02;;;;;;;13.75;8.13;;;14.10;91.60;;;;;;5105876;28;20110;-85
2021/05/12 07:08:27;;;;;;;12.93;8.80;;;14.20;91.60;;;;;;5059404;28;20020;-85
2021/05/12 07:10:53;;;;;;;14.57;8.93;;;14.30;91.20;;;;;;5067742;28;20031;-85
2021/05/12 07:13:19;;;;;;;11.25;7.88;;;14.40;91.00;;;;;;5053220;28;20028;-85
2021/05/12 07:15:45;;;;;;;15.07;7.75;;;14.40;90.80;;;;;;5074959;28;20439;-85
2021/05/12 07:18:11;;;;;;;12.48;6.20;;;14.50;90.50;;;;;;5060868;28;20031;-85
2021/05/12 07:20:36;;;;;;;9.60;5.30;;;14.60;90.50;;;;;;5091077;28;20053;-85
2021/05/12 07:23:20;;;;;;;11.25;5.70;;;14.60;89.70;;;;;;5086438;28;20015;-85
2021/05/12 07:25:47;;;;;;;10.35;5.15;;;14.70;89.10;;;;;;5089636;28;20024;-86
2021/05/12 07:28:14;;;;;;;11.65;5.35;;;14.80;89.20;;;;;;5081499;28;20022;-85
2021/05/12 07:30:41;;;;;;;8.65;4.82;;;14.90;89.60;;;;;;5105719;28;20039;-85
2021/05/12 07:33:07;;;;;;;15.23;5.82;;;15.00;89.60;;;;;;5113420;28;20383;-85
2021/05/12 07:35:33;;;;;;;11.10;4.97;;;15.10;88.80;;;;;;5077857;28;20475;-85
2021/05/12 07:37:59;;;;;;;9.57;5.32;;;15.20;88.10;;;;;;5094608;28;20067;-85
2021/05/12 07:40:25;;;;;;;9.27;4.40;;;15.20;87.60;;;;;;5077710;28;20034;-86
2021/05/12 07:42:51;;;;;;;9.13;5.00;;;15.30;86.80;;;;;;5094718;28;20040;-85
2021/05/12 07:45:17;;;;;;;9.27;4.60;;;15.40;86.60;;;;;;5113103;28;20396;-85
2021/05/12 07:47:43;;;;;;;12.40;5.72;;;15.50;86.60;;;;;;5094339;28;20027;-85
2021/05/12 07:50:10;;;;;;;10.40;5.32;;;15.50;86.30;;;;;;5076738;28;20481;-85
2021/05/12 07:52:37;;;;;;;11.50;5.35;;;15.60;86.20;;;;;;5076274;28;20028;-85
2021/05/12 07:55:03;;;;;;;10.35;5.88;;;15.70;85.60;;;;;;5061534;28;20157;-85
2021/05/12 07:57:29;;;;;;;11.63;4.75;;;15.80;85.30;;;;;;5093744;28;20384;-85
2021/05/12 07:59:55;;;;;;;8.02;4.68;;;15.90;85.40;;;;;;5078754;28;20036;-85
2021/05/12 08:02:20;;;;;;;10.43;5.00;;;16.00;83.80;;;;;;5098464;28;20032;-85
2021/05/12 08:04:46;;;;;;;10.82;5.75;;;16.10;83.70;;;;;;5077020;28;20056;-85
2021/05/12 08:07:12;;;;;;;11.50;4.50;;;16.10;82.90;;;;;;5082977;28;20024;-84
2021/05/12 08:09:37;;;;;;;11.10;4.85;;;16.20;82.40;;;;;;5061114;28;20115;-84
2021/05/12 08:12:03;;;;;;;10.85;5.00;;;16.30;82.60;;;;;;5088816;28;20119;-84
2021/05/12 08:14:29;;;;;;;10.70;4.90;;;16.40;82.50;;;;;;5087077;28;20039;-83
2021/05/12 08:16:55;;;;;;;7.93;4.75;;;16.50;82.80;;;;;;5090845;28;20055;-84
2021/05/12 08:19:20;;;;;;;9.32;4.65;;;16.50;81.10;;;;;;5074298;28;20449;-85
2021/05/12 08:21:50;;;;;;;10.40;5.35;;;16.60;81.30;;;;;;5084740;28;20032;-85
2021/05/12 08:24:16;;;;;;;9.75;4.40;;;16.70;81.20;;;;;;5094304;28;20028;-84
2021/05/12 08:26:42;;;;;;;10.43;4.30;;;16.70;81.00;;;;;;5071813;28;20021;-84
2021/05/12 08:29:08;;;;;;;12.52;5.07;;;16.80;81.00;;;;;;5093176;28;20133;-84
2021/05/12 08:31:38;;;;;;;9.65;4.72;;;16.90;81.00;;;;;;5077306;28;20500;-84
2021/05/12 08:34:03;;;;;;;7.93;4.07;;;17.00;80.70;;;;;;5089029;28;20036;-83
2021/05/12 08:36:29;;;;;;;7.15;3.22;;;17.00;80.50;;;;;;5094377;28;20028;-83
2021/05/12 08:38:55;;;;;;;8.77;3.00;;;17.10;79.40;;;;;;5093768;28;20036;-83
2021/05/12 08:41:21;;;;;;;7.93;2.95;;;17.20;79.00;;;;;;5091589;28;20039;-85
2021/05/12 08:43:47;;;;;;;8.10;2.97;;;17.30;78.20;;;;;;5094335;28;20056;-85
2021/05/12 08:46:14;;;;;;;7.05;3.03;;;17.30;76.60;;;;;;5094353;28;20019;-85
2021/05/12 08:48:43;;;;;;;8.20;3.03;;;17.40;76.60;;;;;;5094513;28;20012;-86
2021/05/12 08:51:10;;;;;;;6.45;3.05;;;17.50;76.30;;;;;;5094047;28;20016;-84
2021/05/12 08:53:37;;;;;;;8.15;2.97;;;17.50;76.40;;;;;;5093119;28;20032;-85
2021/05/12 08:56:04;;;;;;;6.13;2.90;;;17.60;76.30;;;;;;5094120;28;20021;-87
2021/05/12 08:58:30;;;;;;;7.80;3.25;;;17.60;76.60;;;;;;5094757;28;20012;-86
2021/05/12 09:00:55;;;;;;;7.65;3.20;;;17.70;76.30;;;;;;5076502;28;20107;-86
2021/05/12 09:06:00;;;;;;;8.05;3.45;;;17.80;76.50;;;;;;5072333;22;20065;-83
2021/05/12 09:08:29;;;;;;;6.50;3.00;;;17.90;76.60;;;;;;5032724;28;20032;-80
2021/05/12 09:10:54;;;;;;;6.20;2.40;;;18.00;74.90;;;;;;5024100;28;20047;-80
2021/05/12 09:13:37;;;;;;;7.38;2.20;;;18.00;73.20;;;;;;5037506;28;20029;-81
2021/05/12 09:16:29;;;;;;;5.45;1.90;;;18.10;72.50;;;;;;5037176;28;20453;-81
2021/05/12 09:19:09;;;;;;;7.25;2.60;;;18.20;72.80;;;;;;5001590;28;20033;-80
2021/05/12 09:21:54;;;;;;;7.68;2.75;;;18.20;72.70;;;;;;5039597;28;20372;-80
2021/05/12 09:24:23;;;;;;;7.78;2.30;;;18.30;72.40;;;;;;5036510;28;20034;-80
2021/05/12 09:26:50;;;;;;;7.35;2.53;;;18.30;71.50;;;;;;5037073;28;20036;-80
2021/05/12 09:29:28;;;;;;;5.03;1.83;;;18.40;71.10;;;;;;5037380;28;20021;-80
2021/05/12 09:32:09;;;;;;;7.30;2.60;;;18.40;70.70;;;;;;5037290;28;20032;-80
2021/05/12 09:34:56;;;;;;;10.35;2.20;;;18.50;70.60;;;;;;5054762;28;20032;-82
2021/05/12 09:37:23;;;;;;;5.55;2.03;;;18.50;70.60;;;;;;5033883;28;20359;-79
2021/05/12 09:39:50;;;;;;;8.98;2.55;;;18.60;71.30;;;;;;5050944;28;20028;-82
2021/05/12 09:42:20;;;;;;;6.95;1.77;;;18.60;71.30;;;;;;5057450;28;20373;-82
2021/05/12 09:44:46;;;;;;;7.63;2.22;;;18.70;71.90;;;;;;5076012;28;20025;-93
2021/05/12 09:47:28;;;;;;;10.55;2.53;;;18.80;70.90;;;;;;5077852;28;20060;-83
2021/05/12 09:49:55;;;;;;;9.13;2.22;;;18.90;71.20;;;;;;5046940;28;20132;-82
2021/05/12 09:52:30;;;;;;;7.95;2.40;;;18.90;71.20;;;;;;5059154;28;20025;-83
2021/05/12 09:55:00;;;;;;;6.40;1.92;;;19.00;71.10;;;;;;5062918;28;20025;-87
2021/05/12 09:57:27;;;;;;;7.88;2.25;;;19.10;70.70;;;;;;5045993;28;20416;-80
2021/05/12 09:59:53;;;;;;;9.25;2.10;;;19.10;69.80;;;;;;5044772;28;20021;-80
2021/05/12 10:02:18;;;;;;;7.13;1.73;;;19.20;69.40;;;;;;5052919;28;20033;-83
2021/05/12 10:04:46;;;;;;;7.38;1.90;;;19.20;69.00;;;;;;5027368;28;20052;-82
2021/05/12 10:07:26;;;;;;;6.82;2.47;;;19.30;68.40;;;;;;5038869;28;20048;-80
2021/05/12 10:09:53;;;;;;;7.22;2.33;;;19.40;68.60;;;;;;5072689;28;20026;-81
2021/05/12 10:12:26;;;;;;;8.13;1.85;;;19.40;67.70;;;;;;5038793;28;20024;-80
2021/05/12 10:14:55;;;;;;;6.72;1.63;;;19.40;66.80;;;;;;5046933;28;20025;-82
2021/05/12 10:17:22;;;;;;;5.72;1.70;;;19.50;67.00;;;;;;5073093;28;20024;-81
2021/05/12 10:19:49;;;;;;;7.90;2.35;;;19.50;66.60;;;;;;5071399;28;20033;-82
2021/05/12 10:22:17;;;;;;;7.25;1.83;;;19.50;64.80;;;;;;5084358;28;20036;-81
2021/05/12 10:24:45;;;;;;;6.55;1.70;;;19.50;64.90;;;;;;5054847;28;20534;-81
2021/05/12 10:27:16;;;;;;;7.05;1.85;;;19.50;64.20;;;;;;5038455;28;20465;-81
2021/05/12 10:29:49;;;;;;;7.03;1.60;;;19.50;64.70;;;;;;5071222;28;20060;-82
2021/05/12 10:32:16;;;;;;;6.88;1.90;;;19.40;63.70;;;;;;5051775;28;20489;-81
2021/05/12 10:34:41;;;;;;;7.65;1.85;;;19.40;64.60;;;;;;5062110;28;20021;-82
2021/05/12 10:37:18;;;;;;;5.57;1.60;;;19.40;64.60;;;;;;5054004;28;20090;-83
2021/05/12 10:39:48;;;;;;;4.18;1.50;;;19.40;64.50;;;;;;5049020;28;20017;-83
2021/05/12 10:42:33;;;;;;;5.60;1.80;;;19.50;64.10;;;;;;5036740;28;20373;-82
2021/05/12 10:45:00;;;;;;;5.05;1.55;;;19.50;63.70;;;;;;5057058;28;20108;-84
2021/05/12 10:47:37;;;;;;;7.05;1.50;;;19.60;63.70;;;;;;5038020;28;20033;-84
2021/05/12 10:50:03;;;;;;;6.93;1.80;;;19.60;63.30;;;;;;5056703;28;20404;-84
2021/05/12 10:52:29;;;;;;;6.88;2.00;;;19.70;64.00;;;;;;5055877;28;20099;-84
2021/05/12 10:54:55;;;;;;;6.95;1.80;;;19.80;63.90;;;;;;5037806;28;20036;-85
2021/05/12 10:57:42;;;;;;;5.72;1.55;;;19.80;62.40;;;;;;5053836;28;20025;-84
2021/05/12 11:00:09;;;;;;;6.60;1.70;;;19.90;63.30;;;;;;5071030;28;20036;-87
2021/05/12 11:02:49;;;;;;;6.03;1.40;;;20.00;62.50;;;;;;5050238;28;20036;-83
2021/05/12 11:05:15;;;;;;;5.95;1.40;;;20.00;60.00;;;;;;5060002;28;20067;-82
2021/05/12 11:08:16;;;;;;;5.45;1.88;;;20.00;60.70;;;;;;5056503;28;20417;-78
2021/05/12 11:10:59;;;;;;;7.28;1.70;;;20.00;60.30;;;;;;5062101;28;20029;-83
2021/05/12 11:13:26;;;;;;;7.78;2.55;;;20.00;58.50;;;;;;5064695;28;20035;-82
2021/05/12 11:15:54;;;;;;;5.80;1.55;;;20.00;60.20;;;;;;5059725;28;20031;-83
2021/05/12 11:18:41;;;;;;;6.25;1.65;;;19.90;60.50;;;;;;5053352;28;20016;-83
2021/05/12 11:21:16;;;;;;;5.38;1.40;;;19.90;58.40;;;;;;5071064;28;20028;-83
2021/05/12 11:24:04;;;;;;;6.93;1.67;;;19.80;59.30;;;;;;5052784;28;20135;-83
2021/05/12 11:31:08;;;;;;;4.38;1.17;;;19.90;59.70;;;;;;5072233;28;20454;-80
2021/05/12 11:31:55;;;;;;;5.88;1.27;;;20.00;58.40;;;;;;5069514;28;20028;-80
2021/05/12 11:34:21;;;;;;;4.78;1.33;;;20.10;58.30;;;;;;5068993;28;20025;-79
2021/05/12 11:36:47;;;;;;;5.38;1.17;;;20.10;58.50;;;;;;5037053;28;20465;-80
2021/05/12 11:39:12;;;;;;;5.53;1.52;;;20.20;58.70;;;;;;5039645;28;20067;-80
2021/05/12 11:41:40;;;;;;;6.80;1.45;;;20.30;57.50;;;;;;5055081;28;20165;-79
2021/05/12 11:44:06;;;;;;;3.63;1.25;;;20.40;58.40;;;;;;5055588;28;20052;-80
2021/05/12 11:46:39;;;;;;;4.15;1.60;;;20.50;58.90;;;;;;5038650;28;20043;-80
2021/05/12 11:49:13;;;;;;;7.18;1.50;;;20.50;59.20;;;;;;5074339;28;20021;-80
2021/05/12 11:51:47;;;;;;;5.40;1.52;;;20.60;59.00;;;;;;5056073;28;20028;-80
2021/05/12 11:54:22;;;;;;;8.10;1.90;;;20.60;58.70;;;;;;5061901;28;20064;-79
2021/05/12 11:56:49;;;;;;;5.97;1.75;;;20.70;58.60;;;;;;5074529;28;20027;-80
2021/05/12 11:59:19;;;;;;;4.97;1.65;;;20.70;58.50;;;;;;5073344;28;20017;-80
2021/05/12 12:01:48;;;;;;;5.17;1.50;;;20.70;58.10;;;;;;5042927;28;20029;-91
2021/05/12 12:06:58;;;;;;;4.85;1.27;;;20.70;58.20;;;;;;5079478;28;20101;-81
2021/05/12 12:09:24;;;;;;;4.47;1.48;;;20.80;58.30;;;;;;5058316;28;20449;-82
2021/05/12 12:11:50;;;;;;;5.85;1.60;;;20.90;57.90;;;;;;5038803;28;20031;-81
2021/05/12 12:14:16;;;;;;;4.88;1.40;;;21.00;57.90;;;;;;5040236;28;20020;-84
2021/05/12 12:16:44;;;;;;;5.63;1.73;;;21.00;58.10;;;;;;5038315;28;20040;-89
2021/05/12 12:19:17;;;;;;;7.03;1.52;;;21.10;58.20;;;;;;5059253;28;20064;-89
2021/05/12 12:21:45;;;;;;;7.13;1.50;;;21.10;56.50;;;;;;5037080;28;20021;-88
2021/05/12 12:24:22;;;;;;;6.85;1.73;;;21.10;56.90;;;;;;5057468;28;20046;-87
2021/05/12 12:26:53;;;;;;;5.45;1.70;;;21.10;55.80;;;;;;5049298;28;20293;-88
2021/05/12 12:29:24;;;;;;;5.40;1.77;;;21.10;56.60;;;;;;5053431;28;20020;-88
2021/05/12 12:31:53;;;;;;;3.60;1.55;;;21.10;56.80;;;;;;5041216;28;20163;-89
2021/05/12 12:34:23;;;;;;;4.03;1.40;;;21.20;57.80;;;;;;5057749;28;20027;-87
2021/05/12 12:36:57;;;;;;;2.47;1.15;;;21.30;57.80;;;;;;5057525;28;20028;-87
2021/05/12 12:39:46;;;;;;;5.15;1.50;;;21.40;58.80;;;;;;5056779;28;20017;-87
2021/05/12 12:42:16;;;;;;;4.40;1.92;;;21.50;55.90;;;;;;5054882;28;20480;-87
2021/05/12 12:44:43;;;;;;;5.85;1.60;;;21.60;55.30;;;;;;5060360;28;20036;-87
2021/05/12 12:47:17;;;;;;;7.68;2.13;;;21.60;55.60;;;;;;5056150;28;20031;-87